Time;durP1;ratioP1;P1;durP2;ratioP2;P2;SDS_P1;SDS_P2;PMS_P1;PMS_P2;Temp;Humidity;BMP_temperature;BMP_pressure;BME280_temperature;BME280_humidity;BME280_pressure;Samples;Min_cycle;Max_cycle;Signal;HPM_P1;HPM_P2
2022/04/22 00:00:16;;;;;;;2.13;1.50;;;;;;;;;;5009321;28;20065;-65
2022/04/22 00:02:41;;;;;;;3.05;1.48;;;10.20;95.90;;;;;;5025430;28;20092;-66
2022/04/22 00:05:07;;;;;;;2.40;1.95;;;10.20;81.10;;;;;;5008807;28;20033;-65
2022/04/22 00:07:33;;;;;;;2.78;1.88;;;;;;;;;;5008775;28;20030;-65
2022/04/22 00:09:59;;;;;;;3.25;2.00;;;10.10;95.80;;;;;;5009058;28;20030;-65
2022/04/22 00:12:25;;;;;;;2.88;1.60;;;;;;;;;;5009266;28;20026;-67
2022/04/22 00:14:51;;;;;;;2.67;1.67;;;;;;;;;;5009056;28;20092;-65
2022/04/22 00:17:17;;;;;;;3.13;1.83;;;10.10;87.70;;;;;;5008880;28;20391;-65
2022/04/22 00:19:43;;;;;;;2.72;1.50;;;;;;;;;;5008809;28;20028;-66
2022/04/22 00:22:09;;;;;;;2.13;1.67;;;;;;;;;;5008720;28;20495;-64
2022/04/22 00:24:35;;;;;;;1.95;1.58;;;;;;;;;;5009085;28;20080;-66
2022/04/22 00:27:01;;;;;;;3.08;1.27;;;;;;;;;;5009055;28;20037;-66
2022/04/22 00:29:27;;;;;;;3.85;1.50;;;;;;;;;;5024905;28;20199;-66
2022/04/22 00:31:53;;;;;;;1.42;1.27;;;;;;;;;;5008337;28;20026;-66
2022/04/22 00:34:19;;;;;;;6.13;1.60;;;;;;;;;;5008568;28;20049;-66
2022/04/22 00:36:45;;;;;;;4.63;2.42;;;;;;;;;;5008717;28;20048;-64
2022/04/22 00:39:11;;;;;;;3.45;2.10;;;;;;;;;;5008919;28;20499;-65
2022/04/22 00:41:37;;;;;;;2.13;1.65;;;;;;;;;;5009795;28;20040;-65
2022/04/22 00:44:03;;;;;;;5.25;2.22;;;;;;;;;;5008451;28;20110;-65
2022/04/22 00:46:29;;;;;;;3.78;1.92;;;;;;;;;;5008510;28;20037;-65
2022/04/22 00:48:55;;;;;;;2.03;1.65;;;;;;;;;;5008324;28;20025;-66
2022/04/22 00:51:22;;;;;;;2.80;1.58;;;;;;;;;;5039875;28;20446;-65
2022/04/22 00:53:49;;;;;;;2.70;1.42;;;;;;;;;;5009084;28;20030;-64
2022/04/22 00:56:15;;;;;;;1.77;1.50;;;;;;;;;;5008847;28;20050;-64
2022/04/22 00:58:44;;;;;;;1.40;1.30;;;9.20;86.60;;;;;;5008470;28;20132;-64
2022/04/22 01:01:13;;;;;;;7.82;1.60;;;;;;;;;;5008391;28;20026;-66
2022/04/22 01:03:39;;;;;;;3.25;1.88;;;;;;;;;;5008565;28;20112;-66
2022/04/22 01:11:36;;;;;;;5.72;1.98;;;;;;;;;;5009256;28;20091;-66
2022/04/22 01:14:03;;;;;;;1.88;1.48;;;;;;;;;;4998028;28;20058;-66
2022/04/22 01:16:29;;;;;;;2.10;1.85;;;;;;;;;;4997232;28;20207;-66
2022/04/22 01:18:55;;;;;;;2.78;1.33;;;;;;;;;;4997007;28;20237;-67
2022/04/22 01:21:21;;;;;;;2.78;2.00;;;;;;;;;;4993637;28;20033;-65
2022/04/22 01:23:47;;;;;;;3.17;1.60;;;8.60;90.50;;;;;;4992931;28;20034;-66
2022/04/22 01:26:14;;;;;;;3.63;2.08;;;;;;;;;;4996701;28;20029;-65
2022/04/22 01:28:40;;;;;;;1.90;1.33;;;8.50;92.60;;;;;;5003657;28;20038;-65
2022/04/22 01:31:06;;;;;;;2.20;2.05;;;;;;;;;;5007965;28;20419;-64
2022/04/22 01:33:31;;;;;;;3.13;1.65;;;8.30;99.50;;;;;;5008345;28;20041;-66
2022/04/22 01:35:57;;;;;;;3.72;2.50;;;8.70;95.60;;;;;;4992596;28;20073;-65
2022/04/22 01:38:23;;;;;;;3.25;1.50;;;;;;;;;;5008854;28;20034;-64
2022/04/22 01:40:49;;;;;;;3.50;1.92;;;8.60;90.00;;;;;;4999785;28;20038;-65
2022/04/22 01:43:15;;;;;;;2.22;1.58;;;;;;;;;;4996874;28;20042;-66
2022/04/22 01:45:41;;;;;;;3.28;1.58;;;8.80;94.00;;;;;;4996211;28;20403;-66
2022/04/22 01:48:07;;;;;;;2.22;1.80;;;;;;;;;;5007682;28;20038;-66
2022/04/22 01:50:33;;;;;;;1.75;1.00;;;;;;;;;;5008476;28;20026;-65
2022/04/22 01:52:59;;;;;;;2.15;1.85;;;;;;;;;;4998583;28;20564;-65
2022/04/22 01:55:28;;;;;;;1.73;1.63;;;;;;;;;;5001818;28;20030;-65
2022/04/22 01:57:54;;;;;;;1.27;1.17;;;;;;;;;;5007196;28;20578;-64
2022/04/22 02:00:21;;;;;;;3.33;1.83;;;;;;;;;;5002790;28;20072;-65
2022/04/22 02:02:47;;;;;;;1.92;1.67;;;;;;;;;;4992395;28;20033;-65
2022/04/22 02:05:13;;;;;;;2.65;1.77;;;;;;;;;;5008051;28;20127;-66
2022/04/22 02:07:41;;;;;;;4.05;3.63;;;;;;;;;;5023450;28;20053;-66
2022/04/22 02:10:07;;;;;;;1.90;1.42;;;;;;;;;;5007562;28;20104;-64
2022/04/22 02:12:33;;;;;;;7.97;3.03;;;;;;;;;;5007850;28;20076;-65
2022/04/22 02:14:59;;;;;;;2.63;1.92;;;;;;;;;;5008007;28;20038;-65
2022/04/22 02:17:26;;;;;;;6.47;1.88;;;;;;;;;;5008463;28;20458;-65
2022/04/22 02:19:52;;;;;;;3.15;1.73;;;8.40;99.60;;;;;;5002353;28;20026;-64
2022/04/22 02:22:17;;;;;;;2.08;1.48;;;8.00;99.50;;;;;;5007116;28;20404;-64
2022/04/22 02:24:43;;;;;;;2.13;1.73;;;8.40;94.70;;;;;;5003378;28;20030;-65
2022/04/22 02:29:53;;;;;;;5.00;1.60;;;8.10;99.80;;;;;;5011068;28;20037;-64
2022/04/22 02:32:19;;;;;;;1.67;1.58;;;;;;;;;;5011726;28;20030;-66
2022/04/22 02:34:45;;;;;;;4.53;2.28;;;;;;;;;;5011388;28;20045;-66
2022/04/22 02:37:11;;;;;;;2.45;1.38;;;8.10;93.40;;;;;;5008265;28;20041;-63
2022/04/22 02:39:37;;;;;;;2.22;1.63;;;;;;;;;;4998827;28;20159;-65
2022/04/22 02:47:32;;;;;;;1.88;1.50;;;8.10;99.90;;;;;;5010301;28;20041;-65
2022/04/22 02:49:57;;;;;;;2.90;1.40;;;8.10;99.90;;;;;;5009910;28;20038;-64
2022/04/22 02:52:23;;;;;;;2.88;1.60;;;8.20;99.90;;;;;;5010412;28;20052;-65
2022/04/22 02:54:49;;;;;;;3.55;2.15;;;;;;;;;;5010347;28;20116;-66
2022/04/22 02:57:15;;;;;;;2.95;1.98;;;;;;;;;;5010735;28;20081;-66
2022/04/22 02:59:42;;;;;;;2.40;1.73;;;;;;;;;;5012011;28;20103;-67
2022/04/22 03:02:09;;;;;;;3.60;1.83;;;;;;;;;;4999542;28;20042;-64
2022/04/22 03:04:35;;;;;;;2.85;1.50;;;;;;;;;;5005595;28;20061;-65
2022/04/22 03:07:01;;;;;;;5.40;2.53;;;;;;;;;;5008830;28;20022;-65
2022/04/22 03:09:27;;;;;;;7.30;1.83;;;;;;;;;;5011431;28;20030;-66
2022/04/22 03:11:53;;;;;;;3.88;1.73;;;;;;;;;;5010443;28;20033;-67
2022/04/22 03:14:19;;;;;;;2.08;1.73;;;;;;;;;;5011084;28;20491;-65
2022/04/22 03:16:45;;;;;;;7.50;2.67;;;;;;;;;;5009843;28;20395;-65
2022/04/22 03:19:11;;;;;;;4.45;1.73;;;;;;;;;;5009887;28;20522;-65
2022/04/22 03:21:37;;;;;;;3.17;1.95;;;;;;;;;;5010631;28;20050;-66
2022/04/22 03:24:03;;;;;;;3.83;2.13;;;;;;;;;;5009667;28;20068;-65
2022/04/22 03:26:29;;;;;;;3.63;2.25;;;;;;;;;;4997540;28;20061;-65
2022/04/22 03:28:57;;;;;;;2.35;1.98;;;;;;;;;;4998883;28;20365;-65
2022/04/22 03:31:23;;;;;;;;;;;;;;;;;;5003649;28;20475;-65
2022/04/22 03:33:49;;;;;;;2.97;1.65;;;;;;;;;;5009167;28;19984;-67
2022/04/22 03:36:15;;;;;;;3.92;2.17;;;;;;;;;;5009733;28;20030;-65
2022/04/22 03:38:43;;;;;;;1.95;1.75;;;;;;;;;;5011190;28;20121;-64
2022/04/22 03:41:10;;;;;;;3.03;2.13;;;;;;;;;;5009292;28;20495;-64
2022/04/22 03:43:36;;;;;;;4.43;1.70;;;;;;;;;;5010080;28;20491;-65
2022/04/22 03:46:02;;;;;;;3.42;1.98;;;;;;;;;;5009540;28;20037;-67
2022/04/22 03:48:28;;;;;;;2.80;2.00;;;;;;;;;;5009413;28;20088;-64
2022/04/22 03:50:54;;;;;;;4.13;2.17;;;;;;;;;;5025495;28;20026;-66
2022/04/22 03:53:20;;;;;;;6.50;3.67;;;;;;;;;;5010152;28;20058;-65
2022/04/22 03:55:46;;;;;;;3.22;2.47;;;;;;;;;;5009289;28;20492;-64
2022/04/22 03:58:13;;;;;;;4.53;2.38;;;;;;;;;;5008956;28;20030;-66
2022/04/22 04:00:46;;;;;;;10.27;1.73;;;;;;;;;;5009040;28;20026;-64
2022/04/22 04:03:16;;;;;;;3.05;2.72;;;;;;;;;;5003196;28;20453;-64
2022/04/22 04:05:46;;;;;;;3.75;2.28;;;;;;;;;;5006591;28;20065;-65
2022/04/22 04:08:11;;;;;;;3.55;1.60;;;7.50;97.30;;;;;;5009492;28;20038;-64
2022/04/22 04:16:21;;;;;;;4.57;2.33;;;;;;;;;;5034473;28;20029;-64
2022/04/22 04:18:47;;;;;;;2.50;1.87;;;;;;;;;;5034634;28;20067;-65
2022/04/22 04:23:59;;;;;;;8.48;2.38;;;;;;;;;;5044069;28;20122;-64
2022/04/22 04:26:26;;;;;;;3.97;2.45;;;;;;;;;;5033783;28;20091;-65
2022/04/22 04:28:53;;;;;;;2.95;2.05;;;;;;;;;;5038816;28;20576;-65
2022/04/22 04:31:19;;;;;;;2.63;2.42;;;;;;;;;;5041174;28;20041;-65
2022/04/22 04:33:45;;;;;;;11.90;2.33;;;;;;;;;;5034043;28;20510;-64
2022/04/22 04:36:12;;;;;;;4.05;2.75;;;7.30;92.10;;;;;;5012471;28;20103;-65
2022/04/22 04:38:38;;;;;;;2.63;2.08;;;;;;;;;;5031712;28;20042;-64
2022/04/22 04:41:08;;;;;;;1.90;1.73;;;7.40;92.10;;;;;;5034456;28;20029;-64
2022/04/22 04:43:34;;;;;;;4.82;2.40;;;;;;;;;;5029956;28;20121;-68
2022/04/22 04:46:00;;;;;;;3.43;2.20;;;;;;;;;;4997506;28;20021;-65
2022/04/22 04:48:26;;;;;;;6.22;2.67;;;7.60;99.90;;;;;;4994193;28;20557;-65
2022/04/22 04:50:54;;;;;;;3.72;3.03;;;;;;;;;;5008619;28;20028;-65
2022/04/22 04:53:21;;;;;;;9.65;2.72;;;;;;;;;;5011891;28;20050;-63
2022/04/22 04:55:47;;;;;;;2.20;1.88;;;;;;;;;;4995594;28;20073;-65
2022/04/22 04:58:13;;;;;;;3.28;2.20;;;7.50;92.50;;;;;;4996897;28;20034;-65
2022/04/22 05:00:39;;;;;;;5.88;3.03;;;;;;;;;;5006455;28;20487;-65
2022/04/22 05:03:05;;;;;;;3.40;2.22;;;;;;;;;;4991311;28;20045;-65
2022/04/22 05:05:31;;;;;;;5.50;2.13;;;;;;;;;;5007710;28;20034;-65
2022/04/22 05:07:58;;;;;;;3.47;2.38;;;;;;;;;;5001101;28;20495;-64
2022/04/22 05:10:26;;;;;;;2.65;1.55;;;7.70;92.10;;;;;;5005024;28;20064;-64
2022/04/22 05:12:53;;;;;;;2.70;2.40;;;;;;;;;;5002702;28;20026;-65
2022/04/22 05:15:20;;;;;;;4.53;1.77;;;;;;;;;;5007145;28;20069;-65
2022/04/22 05:17:47;;;;;;;2.53;2.13;;;;;;;;;;5004878;28;20045;-65
2022/04/22 05:20:15;;;;;;;2.40;1.92;;;;;;;;;;5007270;28;20040;-67
2022/04/22 05:22:42;;;;;;;4.05;2.20;;;;;;;;;;5007121;28;20037;-65
2022/04/22 05:25:08;;;;;;;3.33;2.05;;;;;;;;;;5007122;28;20054;-64
2022/04/22 05:27:35;;;;;;;4.53;2.15;;;;;;;;;;5006680;28;20076;-68
2022/04/22 05:32:49;;;;;;;5.28;2.55;;;;;;;;;;5003384;28;20040;-64
2022/04/22 05:35:16;;;;;;;2.17;1.83;;;;;;;;;;5003930;28;20046;-67
2022/04/22 05:38:01;;;;;;;2.95;2.13;;;;;;;;;;5003450;28;20021;-68
2022/04/22 05:40:29;;;;;;;6.05;2.60;;;;;;;;;;5003075;28;20022;-66
2022/04/22 05:42:55;;;;;;;2.05;1.52;;;;;;;;;;5004950;28;20021;-65
2022/04/22 05:45:22;;;;;;;3.10;1.52;;;;;;;;;;5005940;28;20038;-67
2022/04/22 05:47:48;;;;;;;3.17;1.90;;;;;;;;;;5001863;28;20033;-68
2022/04/22 05:50:16;;;;;;;2.85;2.40;;;9.10;90.70;;;;;;5003829;28;20766;-66
2022/04/22 05:52:43;;;;;;;3.67;2.00;;;;;;;;;;5018496;28;20030;-66
2022/04/22 05:55:10;;;;;;;2.92;1.98;;;;;;;;;;5003120;28;20364;-67
2022/04/22 05:57:37;;;;;;;8.65;2.83;;;;;;;;;;5008389;28;20188;-72
2022/04/22 06:00:11;;;;;;;3.25;2.20;;;;;;;;;;5008305;28;20112;-70
2022/04/22 06:02:37;;;;;;;7.15;2.33;;;;;;;;;;5008285;28;20041;-70
2022/04/22 06:05:03;;;;;;;6.25;2.17;;;;;;;;;;5010228;28;20040;-71
2022/04/22 06:07:29;;;;;;;5.18;2.30;;;;;;;;;;5009369;28;20562;-69
2022/04/22 06:12:40;;;;;;;3.97;2.70;;;;;;;;;;4998446;28;20041;-69
2022/04/22 06:15:06;;;;;;;5.63;2.50;;;;;;;;;;4994736;28;20050;-69
2022/04/22 06:17:32;;;;;;;4.55;2.53;;;;;;;;;;5001025;28;20029;-70
2022/04/22 06:19:59;;;;;;;5.30;2.65;;;;;;;;;;5000613;28;20121;-70
2022/04/22 06:22:26;;;;;;;4.05;3.00;;;11.90;86.00;;;;;;5003706;28;20030;-68
2022/04/22 06:24:52;;;;;;;2.83;2.30;;;;;;;;;;5009763;28;20419;-69
2022/04/22 06:27:24;;;;;;;3.10;2.00;;;;;;;;;;5009831;28;20183;-67
2022/04/22 06:29:51;;;;;;;3.17;2.40;;;;;;;;;;4994545;28;20030;-69
2022/04/22 06:32:17;;;;;;;3.40;2.10;;;;;;;;;;4998321;28;20109;-68
2022/04/22 06:34:43;;;;;;;3.67;2.05;;;;;;;;;;4998663;28;20053;-69
2022/04/22 06:37:11;;;;;;;3.33;2.17;;;;;;;;;;5001337;28;20065;-69
2022/04/22 06:45:46;;;;;;;3.17;2.28;;;;;;;;;;5009511;28;20116;-69
2022/04/22 06:47:53;;;;;;;6.35;3.20;;;;;;;;;;5007456;28;20067;-72
2022/04/22 06:50:19;;;;;;;1.92;1.83;;;;;;;;;;5035093;28;20594;-69
2022/04/22 06:52:46;;;;;;;3.25;2.85;;;;;;;;;;5009570;28;20487;-70
2022/04/22 06:55:13;;;;;;;3.85;2.20;;;;;;;;;;5004423;28;20688;-69
2022/04/22 06:57:40;;;;;;;3.75;1.92;;;;;;;;;;5000695;28;20050;-71
2022/04/22 07:00:10;;;;;;;4.18;2.78;;;;;;;;;;4994494;28;20485;-69
2022/04/22 07:02:36;;;;;;;4.95;2.83;;;;;;;;;;5005883;28;20037;-68
2022/04/22 07:05:02;;;;;;;4.15;2.58;;;;;;;;;;5005116;28;20105;-67
2022/04/22 07:07:28;;;;;;;3.45;2.30;;;;;;;;;;5000582;28;20496;-68
2022/04/22 07:09:54;;;;;;;6.30;2.65;;;;;;;;;;4995035;28;20637;-68
2022/04/22 07:12:21;;;;;;;2.95;1.83;;;;;;;;;;4991880;28;20057;-70
2022/04/22 07:14:48;;;;;;;4.20;2.55;;;;;;;;;;4994310;28;20030;-68
2022/04/22 07:17:14;;;;;;;3.53;2.40;;;;;;;;;;4996568;28;20034;-69
2022/04/22 07:19:41;;;;;;;3.75;2.45;;;;;;;;;;4995527;28;20042;-69
2022/04/22 07:22:07;;;;;;;10.23;2.85;;;20.20;63.00;;;;;;4995205;28;20049;-69
2022/04/22 07:24:33;;;;;;;2.20;1.60;;;;;;;;;;4992530;28;20022;-69
2022/04/22 07:26:59;;;;;;;2.83;1.88;;;;;;;;;;5011217;28;20033;-69
2022/04/22 07:29:26;;;;;;;4.25;2.88;;;20.40;62.50;;;;;;4994873;28;20408;-68
2022/04/22 07:31:52;;;;;;;4.05;2.70;;;19.80;59.30;;;;;;5003246;28;20100;-68
2022/04/22 07:34:18;;;;;;;8.00;2.55;;;;;;;;;;5002364;28;20507;-70
2022/04/22 07:36:44;;;;;;;2.63;1.98;;;;;;;;;;4993933;28;20084;-69
2022/04/22 07:39:11;;;;;;;6.80;1.77;;;;;;;;;;4991344;28;20065;-69
2022/04/22 07:41:38;;;;;;;4.85;2.20;;;23.60;46.10;;;;;;4995401;28;20052;-70
2022/04/22 07:46:58;;;;;;;3.25;1.83;;;;;;;;;;4994754;28;20005;-69
2022/04/22 07:49:24;;;;;;;3.72;2.13;;;;;;;;;;4994739;28;20042;-71
2022/04/22 07:51:50;;;;;;;3.42;2.10;;;;;;;;;;5004525;28;20059;-72
2022/04/22 07:54:16;;;;;;;3.53;1.85;;;;;;;;;;4990311;28;20101;-68
2022/04/22 07:56:42;;;;;;;4.10;2.00;;;23.80;61.30;;;;;;4993709;28;20160;-68
2022/04/22 07:59:08;;;;;;;2.47;1.95;;;;;;;;;;4994523;28;20038;-69
2022/04/22 08:01:34;;;;;;;4.53;1.73;;;;;;;;;;5005058;28;20044;-68
2022/04/22 08:04:01;;;;;;;8.90;2.15;;;;;;;;;;5003852;28;20037;-68
2022/04/22 08:06:27;;;;;;;;;;;;;;;;;;5004934;28;20022;-67
2022/04/22 08:08:53;;;;;;;3.95;2.10;;;;;;;;;;4992853;28;19979;-65
2022/04/22 08:11:20;;;;;;;3.63;2.33;;;;;;;;;;5011194;28;20042;-66
2022/04/22 08:13:46;;;;;;;5.50;2.67;;;24.00;40.50;;;;;;4993900;28;20108;-65
2022/04/22 08:16:13;;;;;;;5.60;2.38;;;;;;;;;;4995006;28;20038;-65
2022/04/22 08:18:39;;;;;;;4.65;2.00;;;;;;;;;;4993502;28;20038;-67
2022/04/22 08:21:07;;;;;;;2.78;1.50;;;;;;;;;;4990093;28;20027;-70
2022/04/22 08:23:33;;;;;;;6.10;2.15;;;;;;;;;;4994802;28;20035;-70
2022/04/22 08:25:59;;;;;;;3.63;2.23;;;;;;;;;;4994227;28;20049;-69
2022/04/22 08:28:25;;;;;;;2.85;1.95;;;;;;;;;;4993871;28;20509;-68
2022/04/22 08:30:51;;;;;;;3.35;1.92;;;;;;;;;;4994066;28;20018;-66
2022/04/22 08:33:17;;;;;;;3.88;2.40;;;;;;;;;;4990057;28;20038;-66
2022/04/22 08:35:43;;;;;;;3.97;2.35;;;;;;;;;;4993430;28;20037;-67
2022/04/22 08:38:09;;;;;;;5.85;2.50;;;;;;;;;;4993330;28;21220;-68
2022/04/22 08:40:38;;;;;;;4.15;3.00;;;21.90;44.30;;;;;;4998250;28;20068;-65
2022/04/22 08:43:04;;;;;;;4.78;2.42;;;;;;;;;;4993949;28;20042;-65
2022/04/22 08:45:30;;;;;;;5.95;3.22;;;;;;;;;;4990722;28;20041;-65
2022/04/22 08:50:44;;;;;;;3.42;2.38;;;;;;;;;;4993420;28;20060;-65
2022/04/22 08:53:11;;;;;;;4.82;2.75;;;;;;;;;;4993486;28;20034;-65
2022/04/22 08:55:38;;;;;;;5.47;3.10;;;;;;;;;;4993236;28;20454;-65
2022/04/22 08:58:05;;;;;;;4.93;3.53;;;;;;;;;;4994702;28;20026;-64
2022/04/22 09:00:34;;;;;;;4.78;2.78;;;;;;;;;;4992612;28;20569;-65
2022/04/22 09:03:00;;;;;;;4.65;2.88;;;;;;;;;;4991403;28;20035;-64
2022/04/22 09:05:27;;;;;;;5.07;2.97;;;;;;;;;;4992891;28;20022;-64
2022/04/22 09:07:53;;;;;;;6.93;3.88;;;;;;;;;;4992908;28;20084;-65
2022/04/22 09:10:19;;;;;;;4.72;3.13;;;23.20;44.90;;;;;;4993367;28;20030;-68
2022/04/22 09:12:53;;;;;;;5.23;2.77;;;;;;;;;;4992779;28;20033;-70
2022/04/22 09:15:22;;;;;;;5.95;3.40;;;23.50;44.50;;;;;;5005551;28;20300;-69
2022/04/22 09:17:48;;;;;;;4.10;2.40;;;;;;;;;;5003935;28;20026;-68
2022/04/22 09:20:15;;;;;;;6.15;2.88;;;;;;;;;;4993618;28;20563;-68
2022/04/22 09:22:44;;;;;;;5.60;2.78;;;;;;;;;;5025152;28;20163;-68
2022/04/22 09:25:10;;;;;;;3.92;2.40;;;;;;;;;;4993590;28;20034;-68
2022/04/22 09:27:37;;;;;;;4.80;3.03;;;;;;;;;;4991126;28;20075;-68
2022/04/22 09:30:11;;;;;;;7.40;3.08;;;;;;;;;;4990103;28;20033;-68
2022/04/22 09:32:39;;;;;;;4.88;3.22;;;;;;;;;;5007467;28;20038;-66
2022/04/22 09:35:08;;;;;;;6.97;3.10;;;23.20;45.30;;;;;;5000429;28;20477;-67
2022/04/22 09:43:21;;;;;;;5.47;3.42;;;;;;;;;;5004005;28;20040;-67
2022/04/22 09:45:47;;;;;;;6.05;4.38;;;22.60;65.10;;;;;;5004616;28;20038;-66
2022/04/22 09:48:19;;;;;;;5.65;2.72;;;;;;;;;;5003513;28;20571;-65
2022/04/22 09:50:47;;;;;;;7.82;3.70;;;23.00;44.80;;;;;;5003358;28;20045;-67
2022/04/22 09:53:14;;;;;;;5.43;2.53;;;;;;;;;;5003443;28;20048;-66
2022/04/22 09:55:47;;;;;;;5.20;2.90;;;;;;;;;;5003214;28;20080;-67
2022/04/22 09:58:21;;;;;;;5.57;3.10;;;;;;;;;;5003248;28;20037;-66
2022/04/22 10:00:49;;;;;;;7.32;3.10;;;22.40;45.00;;;;;;5003201;28;20030;-65
2022/04/22 10:03:16;;;;;;;4.57;3.05;;;;;;;;;;5001997;28;20402;-67
2022/04/22 10:05:43;;;;;;;4.53;3.13;;;;;;;;;;5004429;28;20418;-65
2022/04/22 10:08:09;;;;;;;6.53;3.23;;;;;;;;;;5002909;28;20041;-67
2022/04/22 10:10:35;;;;;;;22.45;3.33;;;;;;;;;;5003665;28;20030;-66
2022/04/22 10:13:04;;;;;;;8.68;2.90;;;;;;;;;;5002767;28;20088;-66
2022/04/22 10:15:31;;;;;;;5.45;2.88;;;19.90;52.50;;;;;;5002639;28;20077;-65
2022/04/22 10:17:57;;;;;;;12.02;4.57;;;20.20;72.60;;;;;;5002635;28;20034;-65
2022/04/22 10:20:25;;;;;;;3.70;2.78;;;;;;;;;;5002678;28;20109;-66
2022/04/22 10:22:51;;;;;;;7.38;2.80;;;22.10;60.90;;;;;;4998179;28;20117;-66
2022/04/22 10:25:17;;;;;;;3.92;2.47;;;;;;;;;;5002097;28;20101;-66
2022/04/22 10:27:44;;;;;;;5.10;3.08;;;22.90;46.20;;;;;;5004954;28;20501;-66
2022/04/22 10:30:11;;;;;;;7.05;3.47;;;22.70;44.80;;;;;;5001982;28;20042;-66
2022/04/22 10:32:41;;;;;;;6.85;2.92;;;;;;;;;;5003844;28;20084;-65
2022/04/22 10:35:08;;;;;;;4.32;2.70;;;;;;;;;;5001481;28;20041;-65
2022/04/22 10:37:37;;;;;;;4.63;2.85;;;;;;;;;;4998861;28;20030;-65
2022/04/22 10:40:04;;;;;;;4.38;2.45;;;;;;;;;;5001365;28;20046;-68
2022/04/22 10:42:31;;;;;;;6.90;3.30;;;;;;;;;;5005517;28;20479;-69
2022/04/22 10:47:46;;;;;;;4.75;2.58;;;;;;;;;;5007819;28;20032;-68
2022/04/22 10:50:24;;;;;;;7.82;3.22;;;;;;;;;;4996291;28;20045;-67
2022/04/22 10:53:03;;;;;;;22.77;3.50;;;;;;;;;;4996059;28;20104;-67
2022/04/22 10:55:33;;;;;;;5.85;3.65;;;;;;;;;;4995780;28;20038;-67
2022/04/22 10:58:15;;;;;;;7.30;3.90;;;;;;;;;;4995799;28;20034;-66
2022/04/22 11:00:45;;;;;;;5.47;2.50;;;;;;;;;;4994860;28;20030;-67
2022/04/22 11:03:19;;;;;;;6.70;3.10;;;27.90;34.30;;;;;;4992228;28;20429;-68
2022/04/22 11:05:46;;;;;;;17.08;3.20;;;;;;;;;;5005342;28;20073;-68
2022/04/22 11:08:18;;;;;;;;;;;28.50;33.90;;;;;;4996257;28;20035;-68
2022/04/22 11:10:46;;;;;;;7.88;3.88;;;;;;;;;;4996998;28;20379;-68
2022/04/22 11:13:29;;;;;;;8.32;3.63;;;;;;;;;;4998765;28;20575;-68
2022/04/22 11:16:14;;;;;;;50.17;4.53;;;28.10;31.70;;;;;;5006285;28;20029;-66
2022/04/22 11:18:45;;;;;;;9.15;3.13;;;27.10;32.60;;;;;;4994194;28;20068;-66
2022/04/22 11:21:11;;;;;;;10.38;3.95;;;;;;;;;;4991560;28;20030;-67
2022/04/22 11:23:40;;;;;;;4.38;2.70;;;28.00;32.10;;;;;;4995311;28;20033;-66
2022/04/22 11:26:06;;;;;;;11.60;3.35;;;;;;;;;;4995325;28;20459;-69
2022/04/22 11:28:36;;;;;;;6.85;3.67;;;;;;;;;;5026891;28;20022;-68
2022/04/22 11:31:04;;;;;;;6.57;2.45;;;27.70;32.00;;;;;;4995551;28;20379;-68
2022/04/22 11:33:35;;;;;;;7.75;3.45;;;;;;;;;;4995265;28;20037;-69
2022/04/22 11:36:04;;;;;;;7.30;2.95;;;;;;;;;;4992091;28;20030;-70
2022/04/22 11:38:31;;;;;;;4.40;1.85;;;;;;;;;;4995194;28;20026;-68
2022/04/22 11:40:57;;;;;;;4.78;2.40;;;28.80;33.60;;;;;;5001525;28;20509;-70
2022/04/22 11:43:23;;;;;;;6.33;2.97;;;;;;;;;;5000037;28;20031;-69
2022/04/22 11:45:50;;;;;;;5.47;2.78;;;;;;;;;;5002568;28;20040;-69
2022/04/22 11:48:21;;;;;;;6.88;2.50;;;;;;;;;;4992350;28;20104;-68
2022/04/22 11:50:47;;;;;;;4.72;3.05;;;;;;;;;;5005577;28;20117;-69
2022/04/22 11:53:14;;;;;;;4.32;2.35;;;;;;;;;;5007223;28;20057;-69
2022/04/22 11:55:44;;;;;;;7.55;3.65;;;;;;;;;;5002889;28;20137;-69
2022/04/22 11:58:10;;;;;;;11.88;2.90;;;;;;;;;;5002983;28;20034;-68
2022/04/22 12:06:13;;;;;;;9.90;2.58;;;26.30;32.60;;;;;;5001164;28;20041;-69
2022/04/22 12:08:50;;;;;;;5.05;2.78;;;;;;;;;;5005761;28;20049;-68
2022/04/22 12:11:16;;;;;;;5.15;1.98;;;;;;;;;;5003189;28;20173;-69
2022/04/22 12:13:42;;;;;;;10.13;2.90;;;;;;;;;;4998090;28;20530;-66
2022/04/22 12:16:08;;;;;;;9.35;3.17;;;;;;;;;;5001802;28;20281;-64
2022/04/22 12:18:35;;;;;;;7.03;2.95;;;25.50;29.60;;;;;;4991642;28;20030;-65
2022/04/22 12:21:01;;;;;;;7.88;2.83;;;;;;;;;;4991898;28;20023;-67
2022/04/22 12:23:34;;;;;;;5.45;2.65;;;;;;;;;;4994126;28;20041;-65
2022/04/22 12:26:00;;;;;;;6.20;2.58;;;;;;;;;;5025564;28;20612;-67
2022/04/22 12:28:27;;;;;;;6.97;2.60;;;;;;;;;;5025591;28;20038;-67
2022/04/22 12:30:53;;;;;;;3.95;1.83;;;25.60;37.10;;;;;;4993900;28;20062;-66
2022/04/22 12:33:23;;;;;;;3.83;2.22;;;25.50;31.50;;;;;;5002090;28;20065;-66
2022/04/22 12:35:50;;;;;;;5.00;2.58;;;;;;;;;;5004343;28;20029;-66
2022/04/22 12:38:17;;;;;;;5.50;3.57;;;;;;;;;;4995662;28;20035;-67
2022/04/22 12:40:52;;;;;;;3.70;2.08;;;;;;;;;;4993884;28;20042;-66
2022/04/22 12:43:28;;;;;;;3.97;2.40;;;;;;;;;;4993708;28;20042;-66
2022/04/22 12:54:16;;;;;;;3.88;1.85;;;;;;;;;;4990217;28;20105;-67
2022/04/22 12:56:52;;;;;;;5.13;3.10;;;;;;;;;;4992597;28;20076;-66
2022/04/22 12:59:18;;;;;;;9.57;4.18;;;;;;;;;;4994966;28;20038;-67
2022/04/22 13:01:46;;;;;;;3.60;1.60;;;;;;;;;;5025034;28;20109;-66
2022/04/22 13:04:23;;;;;;;5.18;2.30;;;;;;;;;;4993151;28;20080;-67
2022/04/22 13:06:49;;;;;;;5.82;2.50;;;;;;;;;;4992856;28;20044;-66
2022/04/22 13:09:17;;;;;;;7.93;2.67;;;;;;;;;;4989478;28;20127;-66
2022/04/22 13:11:43;;;;;;;7.80;3.60;;;;;;;;;;4999560;28;20077;-67
2022/04/22 13:14:09;;;;;;;9.48;3.03;;;;;;;;;;4998751;28;20050;-66
2022/04/22 13:16:36;;;;;;;5.63;3.07;;;;;;;;;;4993099;28;20026;-68
2022/04/22 13:19:03;;;;;;;6.28;2.67;;;;;;;;;;4993558;28;20030;-67
2022/04/22 13:21:29;;;;;;;6.47;2.42;;;;;;;;;;4990108;28;20022;-68
2022/04/22 13:23:55;;;;;;;5.18;2.70;;;;;;;;;;4991753;28;20038;-67
2022/04/22 13:26:22;;;;;;;4.60;2.75;;;;;;;;;;4993567;28;20018;-69
2022/04/22 13:28:48;;;;;;;3.83;2.30;;;;;;;;;;4994445;28;20042;-69
2022/04/22 13:31:15;;;;;;;6.57;2.67;;;;;;;;;;5001957;28;20116;-69
2022/04/22 13:33:41;;;;;;;4.22;2.50;;;;;;;;;;4992106;28;20030;-69
2022/04/22 13:36:10;;;;;;;3.70;1.85;;;;;;;;;;4989865;28;20062;-68
2022/04/22 13:38:36;;;;;;;4.82;2.40;;;;;;;;;;4994331;28;20030;-68
2022/04/22 13:41:02;;;;;;;3.45;1.60;;;;;;;;;;4993515;28;20031;-69
2022/04/22 13:43:30;;;;;;;4.50;2.35;;;;;;;;;;5002084;28;20022;-68
2022/04/22 13:54:10;;;;;;;4.88;2.00;;;;;;;;;;5004377;28;20068;-68
2022/04/22 13:56:36;;;;;;;5.93;1.98;;;;;;;;;;5005850;28;20046;-68
2022/04/22 13:59:02;;;;;;;4.78;2.53;;;;;;;;;;5004910;28;20076;-68
2022/04/22 14:01:28;;;;;;;4.75;2.53;;;;;;;;;;5001261;28;20026;-69
2022/04/22 14:03:54;;;;;;;4.03;2.08;;;;;;;;;;4992612;28;20493;-68
2022/04/22 14:06:20;;;;;;;5.30;3.17;;;;;;;;;;5027987;28;20033;-68
2022/04/22 14:08:46;;;;;;;6.10;2.88;;;;;;;;;;5007456;28;20134;-68
2022/04/22 14:11:12;;;;;;;7.00;2.72;;;;;;;;;;5009370;28;20197;-68
2022/04/22 14:13:38;;;;;;;5.68;2.03;;;;;;;;;;4992818;28;20042;-68
2022/04/22 14:16:05;;;;;;;9.27;2.78;;;;;;;;;;4993468;28;20041;-68
2022/04/22 14:18:33;;;;;;;4.85;2.50;;;;;;;;;;5026259;28;20037;-67
2022/04/22 14:20:59;;;;;;;4.00;1.90;;;;;;;;;;4994213;28;20037;-66
2022/04/22 14:23:25;;;;;;;4.50;2.22;;;22.30;51.60;;;;;;5003452;28;20428;-67
2022/04/22 14:25:53;;;;;;;2.38;1.75;;;;;;;;;;4999413;28;20025;-68
2022/04/22 14:28:19;;;;;;;3.83;2.30;;;;;;;;;;4999659;28;20027;-68
2022/04/22 14:30:45;;;;;;;4.03;2.03;;;;;;;;;;4995340;28;20037;-68
2022/04/22 14:33:12;;;;;;;4.70;2.40;;;;;;;;;;4993507;28;20736;-70
2022/04/22 14:35:39;;;;;;;3.13;1.92;;;;;;;;;;4997641;28;20049;-68
2022/04/22 14:38:05;;;;;;;6.28;2.45;;;;;;;;;;4996432;28;20030;-67
2022/04/22 14:40:31;;;;;;;4.07;1.90;;;;;;;;;;4997511;28;20172;-68
2022/04/22 14:42:57;;;;;;;4.45;1.88;;;;;;;;;;4998244;28;20026;-68
2022/04/22 14:45:23;;;;;;;4.53;2.78;;;;;;;;;;4991962;28;20109;-68
2022/04/22 14:47:49;;;;;;;10.45;2.80;;;;;;;;;;4995987;28;20504;-68
2022/04/22 14:50:15;;;;;;;3.53;1.73;;;;;;;;;;4995954;28;20069;-69
2022/04/22 14:52:42;;;;;;;3.70;2.15;;;;;;;;;;4995972;28;20026;-67
2022/04/22 14:55:08;;;;;;;3.17;1.77;;;;;;;;;;4996109;28;20061;-69
2022/04/22 14:57:34;;;;;;;2.53;1.65;;;;;;;;;;4992555;28;20074;-68
2022/04/22 15:00:00;;;;;;;4.68;2.00;;;;;;;;;;4999518;28;20026;-68
2022/04/22 15:02:26;;;;;;;5.15;2.35;;;;;;;;;;4996492;28;20036;-69
2022/04/22 15:04:52;;;;;;;2.67;1.58;;;;;;;;;;4995504;28;20022;-69
2022/04/22 15:07:25;;;;;;;3.38;2.53;;;;;;;;;;4998217;28;20474;-68
2022/04/22 15:09:51;;;;;;;5.07;2.00;;;;;;;;;;5006845;28;20084;-68
2022/04/22 15:12:18;;;;;;;2.85;1.90;;;;;;;;;;4991615;28;20022;-67
2022/04/22 15:14:44;;;;;;;3.63;1.70;;;;;;;;;;4995945;28;20376;-69
2022/04/22 15:17:11;;;;;;;3.70;1.67;;;;;;;;;;4994963;28;20042;-69
2022/04/22 15:25:17;;;;;;;2.15;1.40;;;;;;;;;;5024161;28;20041;-68
2022/04/22 15:27:43;;;;;;;3.42;1.30;;;;;;;;;;5021445;28;20036;-69
2022/04/22 15:30:09;;;;;;;7.25;1.55;;;;;;;;;;5024780;28;20984;-68
2022/04/22 15:32:36;;;;;;;9.07;3.70;;;;;;;;;;5025834;28;20041;-68
2022/04/22 15:35:01;;;;;;;9.23;4.40;;;;;;;;;;5022630;28;20045;-68
2022/04/22 15:37:27;;;;;;;6.22;3.72;;;;;;;;;;5022998;28;20471;-68